Roosevelt, UT

4:27 AM MDT on October 25, 2014 (GMT -0600)
RAWS FORT DUCHESNE UT US | Change Station
CLOSE
Current Station
Personal Weather Station
Location: Fort Duchesne, UT
Elevation: 4928 ft
Nearby Weather Stations

Elev 4928 ft 40.28 °N, 109.86 °W | Updated 56 minutes ago

Clear
Clear
39 °F
Feels Like 39 °F
N
2
Wind Variable Wind from NNW
Gusts 6.0 mph

Today
High -- | Low -- °F
--% Chance of Precip.
Yesterday
High -- | Low -- °F
Precip. -- in
7:42 AM 6:25 PM
New Moon, 2% visible
Pressure 30.15 in
Visibility 10.0 miles
Clouds Clear
Windchill 39 °F
Dew Point 33 °F
Humidity 80%
Rainfall 0.00 in
Snow Depth Not available.
UV 0 out of 12
Pollen 1.60 out of 12
Air Quality Not available.
Flu Activity Sporadic
METAR KVEL 250953Z AUTO 28006KT 10SM CLR 06/00 A3025 RMK AO2 SLP208 T00610000

More Conditions Fewer Conditions

Pressure 30.15 in
Visibility 10.0 miles
Clouds Clear
Windchill 39 °F
Dew Point 33 °F
Humidity 80%
Rainfall 0.00 in
Snow Depth Not available.
UV 0 out of 12
Pollen 1.60 out of 12
Air Quality Not available.
Flu Activity Sporadic
METAR KVEL 250953Z AUTO 28006KT 10SM CLR 06/00 A3025 RMK AO2 SLP208 T00610000

More Conditions Fewer Conditions

10-Day Weather Forecast

Almanac

Astronomy

Oct. 25, 2014 Rise Set
Actual Time 7:42 AM MDT 6:25 PM MDT
Civil Twilight 7:14 AM MDT 6:53 PM MDT
Nautical Twilight 6:42 AM MDT 7:25 PM MDT
Astronomical Twilight 6:10 AM MDT 7:57 PM MDT
Moon 9:24 AM MDT 7:51 PM MDT
Length of Visible Light 11h 39m
Length of Day
10h 43m
Tomorrow will be 2m 27s shorter.
New Moon, 2% of the Moon is Illuminated
Today
New Moon
Oct 30
First Quarter
Nov 6
Full
Nov 14
Last Quarter
Nov 22
New

Today's Extremes

State Highs State Lows

Community

WunderPhotos

Upload Photos

1,764,806 photos uploaded!

Nearby

Snow Depth

Station Depth Elevation
Lakefork #1 3 in 10100 ft
Chepeta 1 in 10300 ft
Brown Duck 1 in 10600 ft
Five Points Lake 0 in 10920 ft
Trout Creek 2 in 9400 ft

Earthquake Activity

City Distance Mag. Time & Date
Ferron, Utah 119 miles 2.5 10:53 PM MDT
2014-10-21
Minimum magnitude displayed is 2.5.

Coastal Water Temperatures

Place Temperature
No Stations Reporting

Nearby Weather Stations